Terminal Aerodrome Forecast
Issued by NWS Wilmington, NC

Current Version | Previous Version | Text Only | Print | Product List | Glossary On
Versions: 1 2 3 4 5 6 7 8 9 10 11 12 13 14 15 16 17
000
FTUS42 KILM 021700
TAFLBT
TAF
KLBT 021729Z 0218/0318 30007KT P6SM OVC008
      TEMPO 0218/0219 34010KT P6SM SCT010
     FM022000 03008KT P6SM BKN015
     FM030600 05011KT 5SM BR VCSH BKN015=

USA.gov is the U.S. government's official web portal to all federal, state and local government web resources and services.